sensor_id;sensor_type;location;lat;lon;timestamp;pressure;altitude;pressure_sealevel;temperature;humidity
49627;BME280;35527;54.616;39.786;2023-05-21T00:02:16;100558.88;;;8.77;100.00
49627;BME280;35527;54.616;39.786;2023-05-21T00:05:20;100547.13;;;8.63;100.00
49627;BME280;35527;54.616;39.786;2023-05-21T00:08:23;100566.75;;;8.71;100.00
49627;BME280;35527;54.616;39.786;2023-05-21T00:11:30;100569.38;;;8.67;100.00
49627;BME280;35527;54.616;39.786;2023-05-21T00:14:33;100560.00;;;8.64;100.00
49627;BME280;35527;54.616;39.786;2023-05-21T00:17:37;100566.06;;;8.62;100.00
49627;BME280;35527;54.616;39.786;2023-05-21T00:20:41;100560.13;;;8.56;100.00
49627;BME280;35527;54.616;39.786;2023-05-21T00:23:45;100558.41;;;8.55;100.00
49627;BME280;35527;54.616;39.786;2023-05-21T00:26:49;100569.75;;;8.50;100.00
49627;BME280;35527;54.616;39.786;2023-05-21T00:29:52;100553.53;;;8.42;100.00
49627;BME280;35527;54.616;39.786;2023-05-21T00:32:54;100554.44;;;8.39;100.00
49627;BME280;35527;54.616;39.786;2023-05-21T00:36:03;100563.00;;;8.38;100.00
49627;BME280;35527;54.616;39.786;2023-05-21T00:39:08;100560.50;;;8.35;100.00
49627;BME280;35527;54.616;39.786;2023-05-21T00:42:12;100568.22;;;8.35;100.00
49627;BME280;35527;54.616;39.786;2023-05-21T00:45:19;100577.63;;;8.41;100.00
49627;BME280;35527;54.616;39.786;2023-05-21T00:48:24;100553.75;;;8.26;100.00
49627;BME280;35527;54.616;39.786;2023-05-21T00:51:30;100574.22;;;8.37;100.00
49627;BME280;35527;54.616;39.786;2023-05-21T00:54:35;100581.09;;;8.37;100.00
49627;BME280;35527;54.616;39.786;2023-05-21T00:57:38;100568.22;;;8.35;100.00
49627;BME280;35527;54.616;39.786;2023-05-21T01:00:43;100572.59;;;8.31;100.00
49627;BME280;35527;54.616;39.786;2023-05-21T01:03:48;100538.50;;;8.14;100.00
49627;BME280;35527;54.616;39.786;2023-05-21T01:06:57;100541.09;;;8.14;100.00
49627;BME280;35527;54.616;39.786;2023-05-21T01:10:02;100557.22;;;8.25;100.00
49627;BME280;35527;54.616;39.786;2023-05-21T01:13:07;100553.81;;;8.23;100.00
49627;BME280;35527;54.616;39.786;2023-05-21T01:16:11;100566.59;;;8.31;100.00
49627;BME280;35527;54.616;39.786;2023-05-21T01:19:17;100567.41;;;8.33;100.00
49627;BME280;35527;54.616;39.786;2023-05-21T01:22:21;100525.69;;;8.09;100.00
49627;BME280;35527;54.616;39.786;2023-05-21T01:25:30;100551.19;;;8.28;100.00
49627;BME280;35527;54.616;39.786;2023-05-21T01:28:33;100567.38;;;8.36;100.00
49627;BME280;35527;54.616;39.786;2023-05-21T01:35:04;100562.97;;;8.44;100.00
49627;BME280;35527;54.616;39.786;2023-05-21T01:38:21;100573.13;;;8.52;100.00
49627;BME280;35527;54.616;39.786;2023-05-21T01:41:25;100580.84;;;8.53;100.00
49627;BME280;35527;54.616;39.786;2023-05-21T01:44:33;100568.91;;;8.48;100.00
49627;BME280;35527;54.616;39.786;2023-05-21T01:47:38;100578.25;;;8.53;100.00
49627;BME280;35527;54.616;39.786;2023-05-21T01:50:44;100578.22;;;8.55;100.00
49627;BME280;35527;54.616;39.786;2023-05-21T01:53:47;100583.38;;;8.56;100.00
49627;BME280;35527;54.616;39.786;2023-05-21T01:56:52;100576.53;;;8.54;100.00
49627;BME280;35527;54.616;39.786;2023-05-21T01:59:56;100583.22;;;8.64;100.00
49627;BME280;35527;54.616;39.786;2023-05-21T02:02:59;100578.06;;;8.64;100.00
49627;BME280;35527;54.616;39.786;2023-05-21T02:06:03;100573.69;;;8.68;100.00
49627;BME280;35527;54.616;39.786;2023-05-21T02:09:07;100563.44;;;8.65;100.00
49627;BME280;35527;54.616;39.786;2023-05-21T02:12:11;100589.75;;;8.82;100.00
49627;BME280;35527;54.616;39.786;2023-05-21T02:15:14;100574.41;;;8.74;100.00
49627;BME280;35527;54.616;39.786;2023-05-21T02:18:21;100561.63;;;8.68;100.00
49627;BME280;35527;54.616;39.786;2023-05-21T02:21:26;100570.22;;;8.70;100.00
49627;BME280;35527;54.616;39.786;2023-05-21T02:24:29;100554.72;;;8.70;100.00
49627;BME280;35527;54.616;39.786;2023-05-21T02:27:35;100569.25;;;8.74;100.00
49627;BME280;35527;54.616;39.786;2023-05-21T02:30:43;100557.94;;;8.82;100.00
49627;BME280;35527;54.616;39.786;2023-05-21T02:33:47;100576.84;;;9.24;100.00
49627;BME280;35527;54.616;39.786;2023-05-21T02:36:52;100570.13;;;9.17;100.00
49627;BME280;35527;54.616;39.786;2023-05-21T02:39:55;100574.25;;;9.24;100.00
49627;BME280;35527;54.616;39.786;2023-05-21T02:42:58;100580.94;;;9.36;100.00
49627;BME280;35527;54.616;39.786;2023-05-21T02:46:01;100573.81;;;9.44;100.00
49627;BME280;35527;54.616;39.786;2023-05-21T02:49:05;100588.34;;;9.51;100.00
49627;BME280;35527;54.616;39.786;2023-05-21T02:52:08;100574.38;;;9.58;100.00
49627;BME280;35527;54.616;39.786;2023-05-21T02:55:13;100590.41;;;9.73;100.00
49627;BME280;35527;54.616;39.786;2023-05-21T02:58:18;100587.34;;;9.94;100.00
49627;BME280;35527;54.616;39.786;2023-05-21T03:01:22;100569.94;;;10.01;100.00
49627;BME280;35527;54.616;39.786;2023-05-21T03:04:25;100590.97;;;10.21;100.00
49627;BME280;35527;54.616;39.786;2023-05-21T03:07:30;100554.16;;;10.11;100.00
49627;BME280;35527;54.616;39.786;2023-05-21T03:10:33;100571.19;;;10.19;100.00
49627;BME280;35527;54.616;39.786;2023-05-21T03:13:36;100560.00;;;10.18;100.00
49627;BME280;35527;54.616;39.786;2023-05-21T03:16:39;100577.81;;;10.32;100.00
49627;BME280;35527;54.616;39.786;2023-05-21T03:19:43;100580.94;;;10.45;100.00
49627;BME280;35527;54.616;39.786;2023-05-21T03:22:46;100589.31;;;10.53;100.00
49627;BME280;35527;54.616;39.786;2023-05-21T03:25:51;100580.16;;;10.41;100.00
49627;BME280;35527;54.616;39.786;2023-05-21T03:28:59;100573.19;;;10.76;100.00
49627;BME280;35527;54.616;39.786;2023-05-21T03:32:04;100580.53;;;12.32;100.00
49627;BME280;35527;54.616;39.786;2023-05-21T03:35:08;100567.34;;;14.81;100.00
49627;BME280;35527;54.616;39.786;2023-05-21T03:38:10;100561.91;;;16.33;80.89
49627;BME280;35527;54.616;39.786;2023-05-21T03:41:14;100569.84;;;17.15;69.96
49627;BME280;35527;54.616;39.786;2023-05-21T03:44:24;100553.72;;;18.00;61.28
49627;BME280;35527;54.616;39.786;2023-05-21T03:47:33;100567.03;;;18.71;58.51
49627;BME280;35527;54.616;39.786;2023-05-21T03:50:39;100567.59;;;19.19;55.21
49627;BME280;35527;54.616;39.786;2023-05-21T03:53:45;100575.81;;;19.68;52.48
49627;BME280;35527;54.616;39.786;2023-05-21T03:56:48;100571.56;;;20.33;50.62
49627;BME280;35527;54.616;39.786;2023-05-21T03:59:55;100571.22;;;21.14;47.38
49627;BME280;35527;54.616;39.786;2023-05-21T04:03:01;100588.63;;;21.53;46.72
49627;BME280;35527;54.616;39.786;2023-05-21T04:06:06;100590.25;;;21.30;46.20
49627;BME280;35527;54.616;39.786;2023-05-21T04:09:14;100557.97;;;21.15;46.02
49627;BME280;35527;54.616;39.786;2023-05-21T04:12:18;100589.25;;;21.07;46.65
49627;BME280;35527;54.616;39.786;2023-05-21T04:15:24;100542.53;;;21.35;45.41
49627;BME280;35527;54.616;39.786;2023-05-21T04:18:28;100575.22;;;21.56;44.06
49627;BME280;35527;54.616;39.786;2023-05-21T04:21:33;100587.88;;;21.51;45.62
49627;BME280;35527;54.616;39.786;2023-05-21T04:24:38;100580.16;;;21.85;44.62
49627;BME280;35527;54.616;39.786;2023-05-21T04:27:51;100581.59;;;22.93;42.16
49627;BME280;35527;54.616;39.786;2023-05-21T04:30:56;100577.56;;;22.32;42.59
49627;BME280;35527;54.616;39.786;2023-05-21T04:34:02;100564.38;;;21.61;44.00
49627;BME280;35527;54.616;39.786;2023-05-21T04:37:08;100566.06;;;21.97;44.10
49627;BME280;35527;54.616;39.786;2023-05-21T04:40:12;100570.09;;;22.72;42.44
49627;BME280;35527;54.616;39.786;2023-05-21T04:43:21;100577.97;;;22.49;42.35
49627;BME280;35527;54.616;39.786;2023-05-21T04:46:31;100574.78;;;23.02;41.59
49627;BME280;35527;54.616;39.786;2023-05-21T04:49:35;100562.63;;;23.66;40.33
49627;BME280;35527;54.616;39.786;2023-05-21T04:52:40;100573.84;;;23.58;39.65
49627;BME280;35527;54.616;39.786;2023-05-21T04:55:43;100568.06;;;23.96;38.78
49627;BME280;35527;54.616;39.786;2023-05-21T04:58:46;100575.88;;;24.91;37.24
49627;BME280;35527;54.616;39.786;2023-05-21T05:01:53;100579.13;;;25.05;37.33
49627;BME280;35527;54.616;39.786;2023-05-21T05:04:57;100574.94;;;25.02;36.64
49627;BME280;35527;54.616;39.786;2023-05-21T05:08:02;100571.28;;;24.93;36.61
49627;BME280;35527;54.616;39.786;2023-05-21T05:11:08;100573.28;;;24.70;36.59
49627;BME280;35527;54.616;39.786;2023-05-21T05:14:13;100553.13;;;25.20;35.51
49627;BME280;35527;54.616;39.786;2023-05-21T05:17:17;100556.53;;;25.80;34.36
49627;BME280;35527;54.616;39.786;2023-05-21T05:20:21;100574.72;;;25.84;34.79
49627;BME280;35527;54.616;39.786;2023-05-21T05:23:25;100571.50;;;24.81;35.65
49627;BME280;35527;54.616;39.786;2023-05-21T05:26:29;100571.28;;;24.93;36.41
49627;BME280;35527;54.616;39.786;2023-05-21T05:29:32;100557.25;;;25.92;34.90
49627;BME280;35527;54.616;39.786;2023-05-21T05:32:38;100572.06;;;26.70;32.91
49627;BME280;35527;54.616;39.786;2023-05-21T05:35:42;100562.41;;;25.64;34.42
49627;BME280;35527;54.616;39.786;2023-05-21T05:38:44;100564.59;;;25.49;35.15
49627;BME280;35527;54.616;39.786;2023-05-21T05:41:47;100565.09;;;25.93;34.27
49627;BME280;35527;54.616;39.786;2023-05-21T05:44:57;100562.13;;;26.06;33.14
49627;BME280;35527;54.616;39.786;2023-05-21T05:48:02;100554.00;;;25.49;35.43
49627;BME280;35527;54.616;39.786;2023-05-21T05:51:12;100573.56;;;26.16;33.39
49627;BME280;35527;54.616;39.786;2023-05-21T05:54:16;100579.41;;;25.11;35.42
49627;BME280;35527;54.616;39.786;2023-05-21T05:57:19;100560.84;;;25.42;35.01
49627;BME280;35527;54.616;39.786;2023-05-21T06:00:28;100569.03;;;24.89;35.28
49627;BME280;35527;54.616;39.786;2023-05-21T06:03:33;100566.00;;;24.93;34.77
49627;BME280;35527;54.616;39.786;2023-05-21T06:06:45;100575.91;;;26.29;32.89
49627;BME280;35527;54.616;39.786;2023-05-21T06:09:48;100559.63;;;26.71;31.78
49627;BME280;35527;54.616;39.786;2023-05-21T06:12:53;100560.31;;;27.01;31.73
49627;BME280;35527;54.616;39.786;2023-05-21T06:15:55;100592.66;;;27.87;30.25
49627;BME280;35527;54.616;39.786;2023-05-21T06:18:58;100590.28;;;27.48;30.34
49627;BME280;35527;54.616;39.786;2023-05-21T06:22:04;100581.66;;;27.18;30.13
49627;BME280;35527;54.616;39.786;2023-05-21T06:25:08;100584.31;;;28.00;29.14
49627;BME280;35527;54.616;39.786;2023-05-21T06:28:14;100588.63;;;28.19;28.29
49627;BME280;35527;54.616;39.786;2023-05-21T06:31:20;100578.13;;;28.69;27.87
49627;BME280;35527;54.616;39.786;2023-05-21T06:34:26;100562.69;;;29.15;27.33
49627;BME280;35527;54.616;39.786;2023-05-21T06:37:34;100562.63;;;29.66;27.33
49627;BME280;35527;54.616;39.786;2023-05-21T06:40:37;100580.50;;;29.74;26.74
49627;BME280;35527;54.616;39.786;2023-05-21T06:43:43;100578.72;;;29.32;27.50
49627;BME280;35527;54.616;39.786;2023-05-21T06:47:15;100578.16;;;28.25;28.80
49627;BME280;35527;54.616;39.786;2023-05-21T06:50:22;100574.03;;;28.83;28.15
49627;BME280;35527;54.616;39.786;2023-05-21T06:53:26;100575.38;;;28.09;28.83
49627;BME280;35527;54.616;39.786;2023-05-21T06:56:30;100563.06;;;27.72;29.09
49627;BME280;35527;54.616;39.786;2023-05-21T06:59:34;100557.44;;;28.37;28.01
49627;BME280;35527;54.616;39.786;2023-05-21T07:02:37;100549.91;;;28.59;27.20
49627;BME280;35527;54.616;39.786;2023-05-21T07:05:40;100563.38;;;28.83;27.00
49627;BME280;35527;54.616;39.786;2023-05-21T07:08:43;100544.53;;;29.19;26.64
49627;BME280;35527;54.616;39.786;2023-05-21T07:11:50;100561.75;;;28.98;26.41
49627;BME280;35527;54.616;39.786;2023-05-21T07:14:54;100562.47;;;29.76;26.39
49627;BME280;35527;54.616;39.786;2023-05-21T07:18:00;100564.66;;;29.80;25.77
49627;BME280;35527;54.616;39.786;2023-05-21T07:21:02;100555.94;;;29.54;26.75
49627;BME280;35527;54.616;39.786;2023-05-21T07:24:05;100539.06;;;27.46;28.30
49627;BME280;35527;54.616;39.786;2023-05-21T07:27:13;100536.66;;;27.07;29.26
49627;BME280;35527;54.616;39.786;2023-05-21T07:30:26;100557.22;;;27.33;28.76
49627;BME280;35527;54.616;39.786;2023-05-21T07:33:30;100565.00;;;28.24;28.09
49627;BME280;35527;54.616;39.786;2023-05-21T07:36:36;100544.75;;;28.05;27.95
49627;BME280;35527;54.616;39.786;2023-05-21T07:39:40;100548.94;;;27.36;28.25
49627;BME280;35527;54.616;39.786;2023-05-21T07:42:45;100539.31;;;26.80;30.08
49627;BME280;35527;54.616;39.786;2023-05-21T07:46:01;100557.72;;;28.52;27.34
49627;BME280;35527;54.616;39.786;2023-05-21T07:49:06;100556.28;;;28.40;27.44
49627;BME280;35527;54.616;39.786;2023-05-21T07:52:12;100546.63;;;27.23;29.28
49627;BME280;35527;54.616;39.786;2023-05-21T07:55:19;100530.56;;;24.94;31.44
49627;BME280;35527;54.616;39.786;2023-05-21T07:58:28;100548.09;;;21.67;36.91
49627;BME280;35527;54.616;39.786;2023-05-21T08:01:33;100554.66;;;20.62;39.40
49627;BME280;35527;54.616;39.786;2023-05-21T08:04:38;100562.13;;;19.77;41.19
49627;BME280;35527;54.616;39.786;2023-05-21T08:07:45;100562.47;;;19.44;41.56
49627;BME280;35527;54.616;39.786;2023-05-21T08:10:50;100532.69;;;19.72;41.97
49627;BME280;35527;54.616;39.786;2023-05-21T08:13:58;100555.84;;;19.66;41.79
49627;BME280;35527;54.616;39.786;2023-05-21T08:17:03;100549.00;;;19.77;40.00
49627;BME280;35527;54.616;39.786;2023-05-21T08:20:07;100544.22;;;20.22;40.46
49627;BME280;35527;54.616;39.786;2023-05-21T08:23:12;100526.66;;;20.48;39.29
49627;BME280;35527;54.616;39.786;2023-05-21T08:26:23;100536.69;;;20.56;40.33
49627;BME280;35527;54.616;39.786;2023-05-21T08:29:27;100533.66;;;19.97;41.29
49627;BME280;35527;54.616;39.786;2023-05-21T08:32:31;100544.97;;;19.72;42.74
49627;BME280;35527;54.616;39.786;2023-05-21T08:35:37;100538.84;;;19.71;42.62
49627;BME280;35527;54.616;39.786;2023-05-21T08:39:05;100544.34;;;20.98;38.84
49627;BME280;35527;54.616;39.786;2023-05-21T08:42:29;100531.53;;;20.29;39.92
49627;BME280;35527;54.616;39.786;2023-05-21T08:45:41;100553.91;;;19.82;41.08
49627;BME280;35527;54.616;39.786;2023-05-21T08:48:45;100529.41;;;19.69;41.00
49627;BME280;35527;54.616;39.786;2023-05-21T08:51:50;100549.16;;;20.40;41.11
49627;BME280;35527;54.616;39.786;2023-05-21T08:54:55;100542.59;;;19.94;40.93
49627;BME280;35527;54.616;39.786;2023-05-21T08:57:58;100562.00;;;20.19;40.90
49627;BME280;35527;54.616;39.786;2023-05-21T09:01:03;100529.19;;;20.63;39.53
49627;BME280;35527;54.616;39.786;2023-05-21T09:04:09;100556.66;;;22.75;36.56
49627;BME280;35527;54.616;39.786;2023-05-21T09:07:25;100547.22;;;22.26;36.65
49627;BME280;35527;54.616;39.786;2023-05-21T09:10:57;100547.03;;;21.70;37.35
49627;BME280;35527;54.616;39.786;2023-05-21T09:14:06;100550.13;;;21.40;37.35
49627;BME280;35527;54.616;39.786;2023-05-21T09:17:37;100544.41;;;22.63;36.53
49627;BME280;35527;54.616;39.786;2023-05-21T09:21:24;100558.78;;;23.26;35.01
49627;BME280;35527;54.616;39.786;2023-05-21T09:24:33;100557.53;;;22.18;35.87
49627;BME280;35527;54.616;39.786;2023-05-21T09:27:43;100551.97;;;22.10;36.24
49627;BME280;35527;54.616;39.786;2023-05-21T09:30:48;100539.66;;;23.34;34.71
49627;BME280;35527;54.616;39.786;2023-05-21T09:33:53;100547.06;;;24.16;33.38
49627;BME280;35527;54.616;39.786;2023-05-21T09:37:00;100555.28;;;24.22;33.46
49627;BME280;35527;54.616;39.786;2023-05-21T09:40:13;100541.06;;;23.93;32.99
49627;BME280;35527;54.616;39.786;2023-05-21T09:43:20;100549.50;;;22.19;34.87
49627;BME280;35527;54.616;39.786;2023-05-21T09:46:28;100548.72;;;21.10;37.32
49627;BME280;35527;54.616;39.786;2023-05-21T09:50:40;100563.19;;;21.41;37.35
49627;BME280;35527;54.616;39.786;2023-05-21T09:56:53;100535.53;;;20.73;36.76
49627;BME280;35527;54.616;39.786;2023-05-21T09:59:57;100549.81;;;20.82;37.17
49627;BME280;35527;54.616;39.786;2023-05-21T10:03:05;100554.56;;;20.64;37.37
49627;BME280;35527;54.616;39.786;2023-05-21T10:06:11;100502.28;;;20.59;37.08
49627;BME280;35527;54.616;39.786;2023-05-21T10:09:17;100540.53;;;21.87;35.81
49627;BME280;35527;54.616;39.786;2023-05-21T10:12:23;100554.75;;;21.84;35.22
49627;BME280;35527;54.616;39.786;2023-05-21T10:15:36;100555.09;;;21.79;35.77
49627;BME280;35527;54.616;39.786;2023-05-21T10:18:41;100541.16;;;21.42;36.07
49627;BME280;35527;54.616;39.786;2023-05-21T10:21:45;100545.34;;;21.08;35.99
49627;BME280;35527;54.616;39.786;2023-05-21T10:24:51;100553.81;;;20.87;37.07
49627;BME280;35527;54.616;39.786;2023-05-21T10:28:05;100538.84;;;20.88;37.10
49627;BME280;35527;54.616;39.786;2023-05-21T10:31:15;100548.22;;;20.92;37.14
49627;BME280;35527;54.616;39.786;2023-05-21T10:34:20;100545.69;;;20.90;36.80
49627;BME280;35527;54.616;39.786;2023-05-21T10:37:27;100541.56;;;20.99;37.35
49627;BME280;35527;54.616;39.786;2023-05-21T10:40:37;100548.94;;;21.44;36.61
49627;BME280;35527;54.616;39.786;2023-05-21T11:01:16;100537.44;;;21.08;35.99
49627;BME280;35527;54.616;39.786;2023-05-21T11:04:25;100550.81;;;21.18;36.04
49627;BME280;35527;54.616;39.786;2023-05-21T11:07:51;100549.34;;;21.50;34.57
49627;BME280;35527;54.616;39.786;2023-05-21T11:10:57;100552.09;;;21.73;34.13
49627;BME280;35527;54.616;39.786;2023-05-21T11:17:40;100552.69;;;22.12;32.75
49627;BME280;35527;54.616;39.786;2023-05-21T11:20:49;100560.34;;;22.15;32.22
49627;BME280;35527;54.616;39.786;2023-05-21T11:23:53;100560.91;;;21.61;32.27
49627;BME280;35527;54.616;39.786;2023-05-21T11:27:01;100562.41;;;21.52;32.64
49627;BME280;35527;54.616;39.786;2023-05-21T11:36:18;100539.19;;;21.20;34.08
49627;BME280;35527;54.616;39.786;2023-05-21T11:39:24;100546.22;;;21.69;33.76
49627;BME280;35527;54.616;39.786;2023-05-21T11:42:33;100555.63;;;22.31;32.12
49627;BME280;35527;54.616;39.786;2023-05-21T11:45:38;100548.13;;;22.71;32.33
49627;BME280;35527;54.616;39.786;2023-05-21T11:48:43;100547.88;;;23.08;31.37
49627;BME280;35527;54.616;39.786;2023-05-21T11:51:46;100532.91;;;22.86;31.82
49627;BME280;35527;54.616;39.786;2023-05-21T11:54:52;100553.63;;;23.25;31.41
49627;BME280;35527;54.616;39.786;2023-05-21T11:58:01;100552.03;;;23.33;31.21
49627;BME280;35527;54.616;39.786;2023-05-21T12:01:06;100551.84;;;22.80;32.20
49627;BME280;35527;54.616;39.786;2023-05-21T12:04:12;100511.16;;;22.26;33.10
49627;BME280;35527;54.616;39.786;2023-05-21T12:07:17;100558.56;;;22.51;33.36
49627;BME280;35527;54.616;39.786;2023-05-21T12:10:26;100551.59;;;22.49;33.59
49627;BME280;35527;54.616;39.786;2023-05-21T12:13:32;100519.22;;;22.47;32.87
49627;BME280;35527;54.616;39.786;2023-05-21T12:16:37;100531.41;;;22.37;33.14
49627;BME280;35527;54.616;39.786;2023-05-21T12:19:41;100535.00;;;22.25;33.82
49627;BME280;35527;54.616;39.786;2023-05-21T12:22:49;100541.78;;;21.70;34.42
49627;BME280;35527;54.616;39.786;2023-05-21T12:25:56;100543.00;;;21.53;34.26
49627;BME280;35527;54.616;39.786;2023-05-21T12:29:03;100490.72;;;20.99;35.10
49627;BME280;35527;54.616;39.786;2023-05-21T12:32:09;100536.44;;;20.85;35.76
49627;BME280;35527;54.616;39.786;2023-05-21T12:35:21;100519.22;;;20.30;36.65
49627;BME280;35527;54.616;39.786;2023-05-21T12:38:29;100540.28;;;20.55;35.83
49627;BME280;35527;54.616;39.786;2023-05-21T12:41:34;100544.03;;;20.77;35.64
49627;BME280;35527;54.616;39.786;2023-05-21T12:44:45;100528.03;;;20.29;36.36
49627;BME280;35527;54.616;39.786;2023-05-21T12:47:51;100496.88;;;19.97;36.72
49627;BME280;35527;54.616;39.786;2023-05-21T12:51:04;100535.81;;;20.30;36.76
49627;BME280;35527;54.616;39.786;2023-05-21T12:54:11;100532.88;;;20.35;36.52
49627;BME280;35527;54.616;39.786;2023-05-21T12:57:17;100530.03;;;20.51;37.13
49627;BME280;35527;54.616;39.786;2023-05-21T13:00:24;100532.56;;;20.78;36.29
49627;BME280;35527;54.616;39.786;2023-05-21T13:03:31;100506.06;;;20.68;35.72
49627;BME280;35527;54.616;39.786;2023-05-21T13:06:41;100537.59;;;20.93;36.13
49627;BME280;35527;54.616;39.786;2023-05-21T13:09:45;100529.19;;;20.63;35.37
49627;BME280;35527;54.616;39.786;2023-05-21T13:12:49;100505.53;;;20.50;36.25
49627;BME280;35527;54.616;39.786;2023-05-21T13:15:53;100535.44;;;20.75;35.37
49627;BME280;35527;54.616;39.786;2023-05-21T13:18:56;100525.47;;;21.04;35.33
49627;BME280;35527;54.616;39.786;2023-05-21T13:21:59;100527.72;;;21.21;34.71
49627;BME280;35527;54.616;39.786;2023-05-21T13:25:04;100536.28;;;21.12;35.54
49627;BME280;35527;54.616;39.786;2023-05-21T13:28:07;100512.09;;;20.94;35.50
49627;BME280;35527;54.616;39.786;2023-05-21T13:31:22;100525.97;;;21.09;35.25
49627;BME280;35527;54.616;39.786;2023-05-21T13:34:25;100529.63;;;21.19;34.32
49627;BME280;35527;54.616;39.786;2023-05-21T13:37:30;100510.53;;;21.28;35.41
49627;BME280;35527;54.616;39.786;2023-05-21T13:40:34;100521.78;;;20.93;35.00
49627;BME280;35527;54.616;39.786;2023-05-21T13:43:42;100525.69;;;21.25;34.84
49627;BME280;35527;54.616;39.786;2023-05-21T13:46:45;100528.63;;;21.33;34.54
49627;BME280;35527;54.616;39.786;2023-05-21T13:49:52;100523.97;;;21.12;35.44
49627;BME280;35527;54.616;39.786;2023-05-21T13:52:55;100534.91;;;20.69;35.89
49627;BME280;35527;54.616;39.786;2023-05-21T13:56:00;100517.00;;;20.36;36.97
49627;BME280;35527;54.616;39.786;2023-05-21T13:59:02;100521.19;;;20.13;37.85
49627;BME280;35527;54.616;39.786;2023-05-21T14:02:09;100539.84;;;19.83;38.29
49627;BME280;35527;54.616;39.786;2023-05-21T14:05:12;100524.91;;;19.56;39.24
49627;BME280;35527;54.616;39.786;2023-05-21T14:08:16;100523.78;;;19.33;39.20
49627;BME280;35527;54.616;39.786;2023-05-21T14:11:26;100531.25;;;19.40;39.16
49627;BME280;35527;54.616;39.786;2023-05-21T14:14:33;100521.28;;;19.32;39.74
49627;BME280;35527;54.616;39.786;2023-05-21T14:17:36;100519.91;;;19.12;40.31
49627;BME280;35527;54.616;39.786;2023-05-21T14:20:42;100523.72;;;19.21;40.05
49627;BME280;35527;54.616;39.786;2023-05-21T14:23:45;100509.81;;;19.06;39.74
49627;BME280;35527;54.616;39.786;2023-05-21T14:26:51;100496.47;;;19.23;39.69
49627;BME280;35527;54.616;39.786;2023-05-21T14:29:54;100500.72;;;19.39;39.78
49627;BME280;35527;54.616;39.786;2023-05-21T14:33:07;100520.47;;;19.71;39.27
49627;BME280;35527;54.616;39.786;2023-05-21T14:36:12;100520.59;;;19.83;39.34
49627;BME280;35527;54.616;39.786;2023-05-21T14:39:15;100512.44;;;19.87;38.87
49627;BME280;35527;54.616;39.786;2023-05-21T14:42:19;100465.72;;;19.65;38.68
49627;BME280;35527;54.616;39.786;2023-05-21T14:45:21;100511.81;;;19.84;39.17
49627;BME280;35527;54.616;39.786;2023-05-21T14:48:25;100492.78;;;19.53;39.95
49627;BME280;35527;54.616;39.786;2023-05-21T14:51:28;100513.03;;;19.78;39.02
49627;BME280;35527;54.616;39.786;2023-05-21T14:54:32;100496.56;;;19.89;39.06
49627;BME280;35527;54.616;39.786;2023-05-21T14:57:35;100507.19;;;20.00;38.72
49627;BME280;35527;54.616;39.786;2023-05-21T15:00:38;100498.38;;;20.01;38.77
49627;BME280;35527;54.616;39.786;2023-05-21T15:03:41;100489.06;;;19.83;40.07
49627;BME280;35527;54.616;39.786;2023-05-21T15:06:44;100498.53;;;19.72;41.55
49627;BME280;35527;54.616;39.786;2023-05-21T15:09:49;100503.31;;;19.66;40.86
49627;BME280;35527;54.616;39.786;2023-05-21T15:12:53;100502.13;;;19.57;41.19
49627;BME280;35527;54.616;39.786;2023-05-21T15:15:58;100495.31;;;19.54;40.97
49627;BME280;35527;54.616;39.786;2023-05-21T15:19:00;100496.09;;;19.42;41.57
49627;BME280;35527;54.616;39.786;2023-05-21T15:22:03;100492.59;;;19.29;43.31
49627;BME280;35527;54.616;39.786;2023-05-21T15:25:10;100492.63;;;19.15;42.94
49627;BME280;35527;54.616;39.786;2023-05-21T15:28:13;100475.59;;;19.07;42.61
49627;BME280;35527;54.616;39.786;2023-05-21T15:31:17;100478.28;;;19.20;42.10
49627;BME280;35527;54.616;39.786;2023-05-21T15:34:21;100465.69;;;19.25;42.16
49627;BME280;35527;54.616;39.786;2023-05-21T15:37:29;100492.44;;;19.45;41.48
49627;BME280;35527;54.616;39.786;2023-05-21T15:40:35;100474.84;;;19.32;41.90
49627;BME280;35527;54.616;39.786;2023-05-21T15:43:44;100474.03;;;19.32;43.37
49627;BME280;35527;54.616;39.786;2023-05-21T15:46:48;100487.38;;;19.42;41.83
49627;BME280;35527;54.616;39.786;2023-05-21T15:49:52;100475.59;;;19.34;42.05
49627;BME280;35527;54.616;39.786;2023-05-21T15:52:54;100491.47;;;19.46;41.77
49627;BME280;35527;54.616;39.786;2023-05-21T15:56:00;100456.72;;;19.42;42.40
49627;BME280;35527;54.616;39.786;2023-05-21T15:59:06;100474.19;;;19.56;41.82
49627;BME280;35527;54.616;39.786;2023-05-21T16:02:12;100474.03;;;19.45;42.31
49627;BME280;35527;54.616;39.786;2023-05-21T16:05:15;100467.06;;;19.31;41.71
49627;BME280;35527;54.616;39.786;2023-05-21T16:08:18;100467.31;;;19.13;42.43
49627;BME280;35527;54.616;39.786;2023-05-21T16:11:25;100476.50;;;19.21;43.42
49627;BME280;35527;54.616;39.786;2023-05-21T16:14:34;100465.66;;;19.12;43.11
49627;BME280;35527;54.616;39.786;2023-05-21T16:17:39;100469.75;;;19.17;42.32
49627;BME280;35527;54.616;39.786;2023-05-21T16:20:42;100484.84;;;19.13;41.86
49627;BME280;35527;54.616;39.786;2023-05-21T16:23:49;100499.16;;;19.22;42.17
49627;BME280;35527;54.616;39.786;2023-05-21T16:26:53;100488.09;;;19.17;42.57
49627;BME280;35527;54.616;39.786;2023-05-21T16:30:00;100492.38;;;19.05;43.72
49627;BME280;35527;54.616;39.786;2023-05-21T16:33:03;100490.53;;;18.93;43.94
49627;BME280;35527;54.616;39.786;2023-05-21T16:36:06;100506.16;;;18.94;43.36